Time;durP1;ratioP1;P1;durP2;ratioP2;P2;SDS_P1;SDS_P2;PMS_P1;PMS_P2;Temp;Humidity;BMP_temperature;BMP_pressure;BME280_temperature;BME280_humidity;BME280_pressure;Samples;Min_cycle;Max_cycle;Signal;HPM_P1;HPM_P2
2023/09/22 00:00:14;;;;;;;11.93;5.90;;;15.60;99.90;;;;;;4986576;28;20777;-84
2023/09/22 00:02:46;;;;;;;9.93;6.35;;;15.70;99.90;;;;;;4966487;28;20202;-84
2023/09/22 00:05:15;;;;;;;13.60;7.07;;;15.60;99.90;;;;;;4951932;28;20311;-84
2023/09/22 00:07:43;;;;;;;8.82;6.38;;;15.50;99.90;;;;;;4968103;28;20661;-84
2023/09/22 00:10:12;;;;;;;10.32;5.78;;;15.40;99.90;;;;;;4982531;28;20195;-85
2023/09/22 00:12:41;;;;;;;8.02;5.78;;;15.50;99.90;;;;;;4960365;28;20547;-84
2023/09/22 00:15:10;;;;;;;8.27;6.63;;;15.60;99.90;;;;;;4979440;28;20191;-84
2023/09/22 00:17:39;;;;;;;10.00;6.80;;;15.60;99.90;;;;;;4973411;28;20210;-84
2023/09/22 00:20:08;;;;;;;13.35;6.30;;;15.50;99.90;;;;;;4980167;28;20235;-83
2023/09/22 00:22:36;;;;;;;10.35;6.25;;;15.50;99.90;;;;;;4974115;28;20199;-84
2023/09/22 00:25:04;;;;;;;11.80;5.90;;;15.50;99.90;;;;;;4956800;28;20637;-84
2023/09/22 00:27:32;;;;;;;11.55;6.35;;;15.50;99.90;;;;;;4979653;28;20539;-84
2023/09/22 00:29:59;;;;;;;9.23;5.85;;;15.50;99.90;;;;;;4982853;28;20685;-84
2023/09/22 00:32:27;;;;;;;9.38;5.57;;;15.50;99.90;;;;;;4973991;28;20199;-83
2023/09/22 00:34:55;;;;;;;7.82;5.63;;;15.50;99.90;;;;;;4964571;28;20195;-86
2023/09/22 00:37:23;;;;;;;11.20;6.10;;;15.50;99.90;;;;;;4977141;28;20192;-84
2023/09/22 00:39:51;;;;;;;11.70;6.45;;;15.40;99.90;;;;;;4964263;28;20293;-85
2023/09/22 00:42:19;;;;;;;9.27;6.57;;;15.30;99.90;;;;;;4980444;28;20190;-84
2023/09/22 00:44:47;;;;;;;8.82;6.07;;;15.30;99.90;;;;;;4981899;28;20263;-85
2023/09/22 00:47:15;;;;;;;12.63;6.88;;;15.20;99.90;;;;;;4964370;28;20194;-85
2023/09/22 00:49:48;;;;;;;10.45;6.78;;;15.30;99.90;;;;;;4980686;28;20555;-83
2023/09/22 00:52:18;;;;;;;8.27;6.10;;;15.20;99.90;;;;;;4950276;28;20223;-84
2023/09/22 00:54:48;;;;;;;8.30;6.22;;;15.20;99.90;;;;;;4950103;28;20278;-84
2023/09/22 00:57:21;;;;;;;10.40;6.80;;;15.40;99.90;;;;;;4983376;28;20196;-84
2023/09/22 00:59:51;;;;;;;10.18;6.05;;;15.30;99.90;;;;;;4980885;28;20204;-84
2023/09/22 01:02:19;;;;;;;11.43;7.55;;;15.20;99.90;;;;;;4979000;28;20190;-84
2023/09/22 01:04:47;;;;;;;10.68;6.32;;;15.20;99.90;;;;;;4961409;28;20203;-84
2023/09/22 01:07:15;;;;;;;9.55;7.13;;;15.30;99.90;;;;;;4983293;28;20211;-84
2023/09/22 01:09:43;;;;;;;7.80;5.57;;;15.30;99.90;;;;;;4963793;28;20204;-85
2023/09/22 01:12:11;;;;;;;12.10;6.35;;;15.30;99.90;;;;;;4974289;28;20211;-85
2023/09/22 01:14:38;;;;;;;8.15;5.88;;;15.30;99.90;;;;;;4985897;28;20192;-84
2023/09/22 01:17:06;;;;;;;7.03;5.60;;;15.40;99.90;;;;;;4962600;28;20696;-85
2023/09/22 01:19:35;;;;;;;8.55;6.30;;;15.30;99.90;;;;;;4952550;28;20626;-83
2023/09/22 01:22:05;;;;;;;8.02;6.03;;;15.40;99.90;;;;;;4936937;29;20286;-84
2023/09/22 01:24:32;;;;;;;10.73;5.78;;;15.40;99.90;;;;;;4942404;28;20657;-84
2023/09/22 01:27:02;;;;;;;9.38;6.10;;;15.40;99.90;;;;;;4941185;28;20189;-85
2023/09/22 01:29:30;;;;;;;10.32;6.75;;;15.30;99.90;;;;;;4938590;29;20204;-85
2023/09/22 01:31:58;;;;;;;9.63;6.25;;;15.20;99.90;;;;;;4949363;29;20288;-84
2023/09/22 01:34:26;;;;;;;7.78;5.72;;;15.20;99.90;;;;;;4941010;29;20627;-85
2023/09/22 01:36:53;;;;;;;9.15;6.03;;;15.30;99.90;;;;;;4939670;29;20190;-84
2023/09/22 01:39:22;;;;;;;8.75;6.25;;;15.30;99.90;;;;;;4944031;29;20204;-84
2023/09/22 01:41:50;;;;;;;11.65;7.13;;;15.20;99.90;;;;;;4942845;29;20188;-85
2023/09/22 01:44:18;;;;;;;12.95;7.93;;;15.00;99.90;;;;;;4941397;29;20218;-85
2023/09/22 01:46:45;;;;;;;10.10;7.25;;;15.00;99.90;;;;;;4941501;29;20196;-84
2023/09/22 01:49:13;;;;;;;8.88;5.88;;;15.00;99.90;;;;;;4943635;29;20995;-85
2023/09/22 01:51:42;;;;;;;9.13;6.78;;;15.00;99.90;;;;;;4935482;29;20196;-84
2023/09/22 01:54:10;;;;;;;10.05;6.32;;;15.00;99.90;;;;;;4943817;29;20203;-83
2023/09/22 01:56:37;;;;;;;9.43;6.47;;;15.10;99.90;;;;;;4949098;29;20326;-84
2023/09/22 01:59:05;;;;;;;10.02;6.85;;;15.10;99.90;;;;;;4941265;29;20678;-84
2023/09/22 02:01:33;;;;;;;8.65;6.60;;;15.00;99.90;;;;;;4942512;28;20586;-84
2023/09/22 02:04:01;;;;;;;11.15;7.47;;;14.90;99.90;;;;;;4942323;29;20193;-86
2023/09/22 02:06:29;;;;;;;10.02;7.00;;;14.90;99.90;;;;;;4944093;29;20200;-85
2023/09/22 02:08:57;;;;;;;11.70;6.57;;;14.90;99.90;;;;;;4943547;29;20267;-84
2023/09/22 02:11:25;;;;;;;11.48;6.38;;;14.90;99.90;;;;;;4941536;29;20197;-84
2023/09/22 02:13:52;;;;;;;9.18;5.93;;;14.90;99.90;;;;;;4939916;29;20196;-84
2023/09/22 02:16:20;;;;;;;10.50;7.10;;;14.90;99.90;;;;;;4941437;28;20189;-85
2023/09/22 02:18:50;;;;;;;11.27;6.70;;;14.80;99.90;;;;;;4941820;28;20199;-84
2023/09/22 02:21:17;;;;;;;9.02;7.13;;;14.90;99.90;;;;;;4975903;28;20580;-84
2023/09/22 02:23:45;;;;;;;10.63;6.40;;;14.80;99.90;;;;;;4982117;28;20643;-85
2023/09/22 02:26:14;;;;;;;10.02;6.25;;;14.80;99.90;;;;;;4981688;28;20191;-84
2023/09/22 02:28:41;;;;;;;13.85;7.70;;;14.90;99.90;;;;;;4979832;28;20638;-84
2023/09/22 02:31:10;;;;;;;7.95;6.43;;;14.80;99.90;;;;;;4974528;28;20278;-85
2023/09/22 02:33:38;;;;;;;10.50;7.35;;;14.70;99.90;;;;;;4956954;28;20214;-84
2023/09/22 02:36:06;;;;;;;12.20;6.90;;;14.70;99.90;;;;;;4982074;28;20195;-83
2023/09/22 02:38:34;;;;;;;8.20;6.85;;;14.70;99.90;;;;;;4964563;28;20550;-85
2023/09/22 02:41:02;;;;;;;10.00;7.18;;;14.60;99.90;;;;;;4963245;28;20210;-85
2023/09/22 02:43:29;;;;;;;12.43;7.95;;;14.60;99.90;;;;;;4979534;28;20262;-84
2023/09/22 02:45:57;;;;;;;10.40;7.43;;;14.50;99.90;;;;;;4961963;28;20195;-84
2023/09/22 02:48:25;;;;;;;11.57;7.68;;;14.50;99.90;;;;;;4961946;28;20183;-84
2023/09/22 02:50:53;;;;;;;12.30;8.27;;;14.50;99.90;;;;;;4942636;28;20199;-84
2023/09/22 02:53:21;;;;;;;13.80;7.57;;;14.60;99.90;;;;;;4963333;28;20206;-85
2023/09/22 02:55:49;;;;;;;10.63;8.07;;;14.40;99.90;;;;;;4962928;28;20696;-84
2023/09/22 02:58:16;;;;;;;11.65;8.07;;;14.40;99.90;;;;;;4981095;28;20632;-83
2023/09/22 03:00:45;;;;;;;8.48;6.80;;;14.40;99.90;;;;;;4948994;28;20216;-84
2023/09/22 03:03:13;;;;;;;10.43;7.47;;;14.50;99.90;;;;;;4977965;28;20579;-85
2023/09/22 03:05:41;;;;;;;10.40;7.43;;;14.40;99.90;;;;;;4971501;28;20554;-84
2023/09/22 03:08:08;;;;;;;11.38;8.75;;;14.40;99.90;;;;;;4961988;28;20254;-83
2023/09/22 03:10:38;;;;;;;11.27;7.55;;;14.30;99.90;;;;;;4949422;28;20845;-84
2023/09/22 03:13:06;;;;;;;10.85;7.97;;;14.30;99.90;;;;;;4961358;28;20191;-85
2023/09/22 03:15:37;;;;;;;12.82;8.50;;;14.30;99.90;;;;;;4985401;28;20184;-84
2023/09/22 03:18:05;;;;;;;10.52;7.90;;;14.30;99.90;;;;;;4966507;28;20772;-84
2023/09/22 03:20:33;;;;;;;9.57;7.25;;;14.40;99.90;;;;;;4961693;28;20232;-84
2023/09/22 03:23:00;;;;;;;10.63;7.72;;;14.40;99.90;;;;;;4960100;28;20922;-84
2023/09/22 03:25:28;;;;;;;8.75;6.72;;;14.40;99.90;;;;;;4961647;28;20192;-84
2023/09/22 03:27:56;;;;;;;10.10;7.50;;;14.40;99.90;;;;;;4968751;28;20191;-84
2023/09/22 03:30:24;;;;;;;11.98;7.47;;;14.40;99.90;;;;;;4936462;28;20216;-84
2023/09/22 03:32:52;;;;;;;11.07;7.50;;;14.40;99.90;;;;;;4950982;28;20203;-85
2023/09/22 03:35:21;;;;;;;10.98;7.78;;;14.40;99.90;;;;;;4947356;28;20206;-84
2023/09/22 03:37:49;;;;;;;11.68;8.75;;;14.40;99.90;;;;;;4961780;28;20203;-84
2023/09/22 03:40:22;;;;;;;10.50;7.65;;;14.40;99.90;;;;;;4978841;28;20694;-85
2023/09/22 03:42:51;;;;;;;12.82;7.82;;;14.40;99.90;;;;;;4955433;28;20198;-84
2023/09/22 03:45:18;;;;;;;12.32;7.63;;;14.40;99.90;;;;;;4961332;28;20192;-85
2023/09/22 03:47:47;;;;;;;14.02;7.32;;;14.20;99.90;;;;;;4952850;28;20188;-84
2023/09/22 03:50:15;;;;;;;11.48;7.65;;;14.30;99.90;;;;;;4959835;28;20212;-84
2023/09/22 03:52:43;;;;;;;11.23;7.72;;;14.40;99.90;;;;;;4962126;28;20191;-85
2023/09/22 03:55:14;;;;;;;9.48;7.60;;;14.30;99.90;;;;;;4958699;28;20284;-84
2023/09/22 03:57:41;;;;;;;12.23;7.80;;;14.30;99.90;;;;;;4968676;28;20207;-84
2023/09/22 04:00:17;;;;;;;12.35;8.52;;;14.40;99.90;;;;;;4959268;28;20211;-85
2023/09/22 04:02:46;;;;;;;12.38;8.55;;;14.30;99.90;;;;;;4979595;28;20677;-84
2023/09/22 04:05:15;;;;;;;10.50;8.48;;;14.30;99.90;;;;;;4971138;28;20192;-84
2023/09/22 04:07:43;;;;;;;13.57;8.57;;;14.30;99.90;;;;;;4980409;28;20199;-84
2023/09/22 04:10:11;;;;;;;14.32;8.07;;;14.20;99.90;;;;;;4964851;28;20202;-84
2023/09/22 04:12:39;;;;;;;13.55;7.93;;;14.20;99.90;;;;;;4981528;28;20211;-85
2023/09/22 04:15:08;;;;;;;9.15;7.57;;;14.20;99.90;;;;;;4963985;28;20195;-85
2023/09/22 04:17:36;;;;;;;14.60;8.20;;;14.10;99.90;;;;;;4983784;28;20195;-85
2023/09/22 04:20:07;;;;;;;10.23;7.97;;;14.10;99.90;;;;;;4948966;28;20237;-84
2023/09/22 04:22:37;;;;;;;10.38;7.60;;;14.10;99.90;;;;;;4939271;29;20691;-85
2023/09/22 04:25:11;;;;;;;13.00;8.90;;;14.20;99.90;;;;;;4945575;29;20598;-85
2023/09/22 04:27:53;;;;;;;12.50;8.40;;;14.20;99.90;;;;;;4943541;29;20553;-84
2023/09/22 04:30:21;;;;;;;12.98;8.40;;;14.10;99.90;;;;;;4942513;29;20550;-84
2023/09/22 04:32:51;;;;;;;11.88;8.65;;;14.20;99.90;;;;;;4943531;28;20690;-85
2023/09/22 04:35:20;;;;;;;9.77;6.88;;;14.10;99.90;;;;;;4943718;28;20676;-84
2023/09/22 04:37:48;;;;;;;11.13;8.10;;;14.10;99.90;;;;;;4941701;29;20186;-85
2023/09/22 04:40:25;;;;;;;15.15;8.85;;;14.20;99.90;;;;;;4942751;29;20637;-85
2023/09/22 04:42:53;;;;;;;12.38;8.18;;;14.20;99.90;;;;;;4941403;29;20243;-84
2023/09/22 04:45:22;;;;;;;13.55;7.25;;;14.00;99.90;;;;;;4922395;29;20184;-85
2023/09/22 04:47:53;;;;;;;10.27;7.70;;;14.10;99.90;;;;;;4944248;29;20200;-84
2023/09/22 04:50:21;;;;;;;10.93;7.40;;;14.20;99.90;;;;;;4934303;29;20193;-84
2023/09/22 04:52:49;;;;;;;16.35;8.35;;;14.20;99.90;;;;;;4924660;29;20275;-85
2023/09/22 04:55:19;;;;;;;8.77;7.22;;;14.20;99.90;;;;;;4947270;28;20751;-84
2023/09/22 04:57:48;;;;;;;12.10;8.13;;;14.20;99.90;;;;;;4941534;29;21037;-84
2023/09/22 05:00:16;;;;;;;12.85;8.48;;;14.20;99.90;;;;;;4941456;29;20212;-84
2023/09/22 05:02:44;;;;;;;10.63;7.90;;;14.10;99.90;;;;;;4942994;28;20249;-84
2023/09/22 05:05:16;;;;;;;10.80;7.90;;;14.00;99.90;;;;;;4941863;29;20233;-87
2023/09/22 05:07:44;;;;;;;11.25;8.32;;;14.10;99.90;;;;;;4942320;29;20221;-88
2023/09/22 05:10:12;;;;;;;11.48;8.40;;;14.00;99.90;;;;;;4941039;29;20189;-85
2023/09/22 05:12:40;;;;;;;11.68;7.72;;;13.90;99.90;;;;;;4932868;29;20811;-87
2023/09/22 05:15:08;;;;;;;15.05;8.88;;;14.00;99.90;;;;;;4950667;29;20197;-86
2023/09/22 05:17:36;;;;;;;15.63;7.97;;;14.00;99.90;;;;;;4948759;29;20200;-86
2023/09/22 05:20:05;;;;;;;13.38;8.15;;;14.10;99.90;;;;;;4962272;28;20287;-86
2023/09/22 05:22:34;;;;;;;9.85;7.97;;;14.00;99.90;;;;;;4963719;28;20199;-87
2023/09/22 05:25:03;;;;;;;11.55;8.13;;;14.10;99.90;;;;;;4981372;28;20649;-85
2023/09/22 05:27:31;;;;;;;13.65;8.65;;;14.10;99.90;;;;;;4979415;28;20223;-85
2023/09/22 05:29:59;;;;;;;10.02;8.23;;;14.20;99.90;;;;;;4970828;28;20196;-87
2023/09/22 05:32:27;;;;;;;11.15;8.05;;;14.20;99.90;;;;;;4966406;28;20560;-86
2023/09/22 05:34:54;;;;;;;11.55;7.72;;;14.20;99.90;;;;;;4965789;28;20262;-87
2023/09/22 05:37:22;;;;;;;10.80;8.35;;;14.20;99.90;;;;;;4980573;28;20192;-86
2023/09/22 05:39:51;;;;;;;10.68;8.25;;;14.20;99.90;;;;;;4977481;28;20188;-86
2023/09/22 05:42:19;;;;;;;11.23;8.05;;;14.20;99.90;;;;;;4968224;28;20192;-87
2023/09/22 05:44:46;;;;;;;10.80;8.20;;;14.30;99.90;;;;;;4973231;28;20199;-87
2023/09/22 05:47:14;;;;;;;11.30;7.70;;;14.20;99.90;;;;;;4980876;28;20219;-87
2023/09/22 05:49:42;;;;;;;11.75;8.82;;;14.20;99.90;;;;;;4955854;28;20367;-86
2023/09/22 05:52:10;;;;;;;10.98;7.97;;;14.30;99.90;;;;;;4972630;28;20192;-87
2023/09/22 05:54:37;;;;;;;12.68;7.82;;;14.40;99.90;;;;;;4980644;28;20265;-86
2023/09/22 05:57:06;;;;;;;15.80;8.77;;;14.30;99.90;;;;;;4973549;28;20191;-88
2023/09/22 05:59:37;;;;;;;12.38;9.07;;;14.30;99.90;;;;;;4972471;28;20589;-88
2023/09/22 06:02:05;;;;;;;13.25;8.63;;;14.30;99.90;;;;;;4957218;28;20219;-87
2023/09/22 06:04:33;;;;;;;12.02;8.18;;;14.40;99.90;;;;;;4959162;28;20203;-84
2023/09/22 06:07:02;;;;;;;13.60;8.43;;;14.40;99.90;;;;;;4982526;28;20195;-86
2023/09/22 06:09:31;;;;;;;10.82;8.02;;;14.50;99.90;;;;;;4971819;28;20211;-86
2023/09/22 06:11:59;;;;;;;12.00;8.05;;;14.50;99.90;;;;;;4943389;28;20195;-85
2023/09/22 06:14:27;;;;;;;10.68;7.88;;;14.50;99.90;;;;;;4970154;28;20526;-86
2023/09/22 06:16:54;;;;;;;14.93;8.80;;;14.50;99.90;;;;;;4982757;28;20274;-85
2023/09/22 06:19:22;;;;;;;10.68;8.02;;;14.50;99.90;;;;;;4956571;28;20231;-86
2023/09/22 06:21:50;;;;;;;10.63;8.20;;;14.60;99.90;;;;;;4974773;28;20629;-87
2023/09/22 06:24:20;;;;;;;12.45;7.82;;;14.70;99.90;;;;;;4963821;28;20188;-87
2023/09/22 06:26:48;;;;;;;12.40;8.13;;;14.70;99.90;;;;;;4965294;28;20183;-86
2023/09/22 06:29:16;;;;;;;15.70;8.20;;;14.70;99.90;;;;;;4964721;28;20187;-85
2023/09/22 06:31:44;;;;;;;13.10;8.35;;;14.80;99.90;;;;;;4979272;28;20215;-87
2023/09/22 06:34:12;;;;;;;15.23;8.77;;;14.80;99.90;;;;;;4950673;28;20282;-87
2023/09/22 06:36:40;;;;;;;11.93;9.10;;;14.80;99.90;;;;;;4964978;28;20669;-86
2023/09/22 06:39:08;;;;;;;13.25;8.18;;;14.90;99.90;;;;;;4978621;28;20191;-85
2023/09/22 06:41:36;;;;;;;12.73;9.02;;;14.90;99.90;;;;;;4980070;28;20293;-84
2023/09/22 06:44:10;;;;;;;13.13;8.60;;;15.00;99.90;;;;;;4955072;28;20188;-86
2023/09/22 06:46:37;;;;;;;14.77;9.27;;;15.00;99.90;;;;;;4980975;28;20188;-84
2023/09/22 06:49:07;;;;;;;13.07;9.27;;;15.10;99.90;;;;;;4964344;28;20211;-86
2023/09/22 06:51:37;;;;;;;12.52;9.52;;;15.10;99.90;;;;;;4975495;28;20183;-85
2023/09/22 06:54:05;;;;;;;11.70;8.98;;;15.20;99.90;;;;;;4962983;28;20195;-87
2023/09/22 06:56:36;;;;;;;12.55;8.85;;;15.30;99.90;;;;;;4952715;28;20196;-85
2023/09/22 06:59:16;;;;;;;13.15;8.80;;;15.30;99.90;;;;;;4964477;28;20199;-86
2023/09/22 07:01:44;;;;;;;13.02;9.75;;;15.30;99.90;;;;;;4962242;28;20203;-86
2023/09/22 07:04:12;;;;;;;14.52;9.10;;;15.40;99.90;;;;;;4968292;28;20298;-87
2023/09/22 07:06:41;;;;;;;16.08;10.32;;;15.50;99.90;;;;;;4967873;28;20191;-88
2023/09/22 07:09:11;;;;;;;13.45;8.82;;;15.50;99.90;;;;;;4977035;28;20896;-85
2023/09/22 07:11:42;;;;;;;14.63;9.38;;;15.60;99.90;;;;;;4975855;28;20192;-85
2023/09/22 07:14:10;;;;;;;14.80;10.20;;;15.70;99.90;;;;;;4963267;28;20188;-87
2023/09/22 07:16:38;;;;;;;13.23;9.48;;;15.80;99.90;;;;;;4980146;28;20188;-86
2023/09/22 07:19:05;;;;;;;13.80;9.77;;;15.90;99.90;;;;;;4980512;28;20235;-86
2023/09/22 07:21:34;;;;;;;18.55;10.43;;;15.90;99.90;;;;;;4938766;28;20280;-83
2023/09/22 07:24:03;;;;;;;15.23;10.27;;;16.00;99.90;;;;;;4984733;28;20213;-86
2023/09/22 07:26:30;;;;;;;16.42;11.07;;;16.00;99.90;;;;;;4960887;28;20282;-85
2023/09/22 07:28:58;;;;;;;14.20;10.70;;;16.10;99.90;;;;;;4941803;28;20191;-85
2023/09/22 07:31:30;;;;;;;16.42;10.95;;;16.10;99.90;;;;;;4971886;28;20199;-85
2023/09/22 07:33:59;;;;;;;18.35;9.95;;;16.20;99.90;;;;;;4984831;28;20220;-87
2023/09/22 07:36:27;;;;;;;14.43;10.82;;;16.20;99.90;;;;;;4976361;28;20191;-85
2023/09/22 07:38:55;;;;;;;15.32;10.55;;;16.40;99.90;;;;;;4981671;28;20202;-85
2023/09/22 07:41:22;;;;;;;14.68;11.10;;;16.40;99.90;;;;;;4974162;28;20291;-87
2023/09/22 07:43:52;;;;;;;15.77;10.65;;;16.50;99.90;;;;;;4966684;28;20286;-86
2023/09/22 07:46:22;;;;;;;17.88;11.60;;;16.50;99.90;;;;;;4972722;28;20597;-87
2023/09/22 07:48:51;;;;;;;16.33;11.98;;;16.60;99.90;;;;;;4983468;28;20210;-86
2023/09/22 07:51:20;;;;;;;18.48;11.70;;;16.90;99.90;;;;;;4973407;28;20234;-86
2023/09/22 07:53:47;;;;;;;15.50;11.55;;;16.90;99.90;;;;;;4967388;28;20198;-85
2023/09/22 07:56:18;;;;;;;16.98;12.95;;;16.90;99.90;;;;;;4966011;28;20210;-87
2023/09/22 07:58:46;;;;;;;18.40;12.63;;;17.10;99.90;;;;;;4982543;28;20650;-85
2023/09/22 08:01:34;;;;;;;18.65;12.90;;;17.20;99.90;;;;;;4982662;28;20214;-85
2023/09/22 08:04:02;;;;;;;17.02;12.23;;;17.30;99.90;;;;;;4952434;28;20192;-86
2023/09/22 08:06:31;;;;;;;20.33;13.80;;;17.30;99.90;;;;;;4963530;28;20210;-87
2023/09/22 08:08:59;;;;;;;23.63;13.38;;;17.50;99.90;;;;;;4983091;28;20176;-86
2023/09/22 08:11:27;;;;;;;22.67;13.50;;;17.50;99.90;;;;;;4987436;28;20187;-85
2023/09/22 08:13:54;;;;;;;21.58;12.77;;;17.60;99.90;;;;;;4984057;28;20188;-87
2023/09/22 08:16:22;;;;;;;21.80;14.10;;;17.60;99.90;;;;;;4975889;28;20557;-86
2023/09/22 08:18:50;;;;;;;18.10;12.77;;;17.70;99.90;;;;;;4967919;28;20250;-85
2023/09/22 08:21:20;;;;;;;19.23;12.40;;;17.70;99.90;;;;;;4959052;28;20211;-86
2023/09/22 08:23:49;;;;;;;19.55;13.35;;;17.80;99.90;;;;;;4983502;28;20180;-86
2023/09/22 08:26:20;;;;;;;16.85;12.02;;;18.00;99.90;;;;;;4982247;28;20198;-86
2023/09/22 08:28:47;;;;;;;16.77;12.82;;;18.10;99.90;;;;;;4973373;28;20196;-85
2023/09/22 08:31:15;;;;;;;16.67;12.27;;;18.10;99.90;;;;;;4984356;28;20187;-85
2023/09/22 08:33:44;;;;;;;19.58;13.60;;;18.10;99.90;;;;;;4967333;28;20625;-85
2023/09/22 08:36:12;;;;;;;21.13;11.95;;;18.20;99.90;;;;;;4980681;28;20283;-87
2023/09/22 08:38:40;;;;;;;17.65;12.32;;;18.50;99.90;;;;;;4968608;28;20198;-87
2023/09/22 08:41:08;;;;;;;15.27;11.57;;;18.60;99.90;;;;;;4982419;28;20211;-84
2023/09/22 08:43:35;;;;;;;20.50;12.23;;;18.80;99.90;;;;;;4965651;28;20570;-85
2023/09/22 08:46:04;;;;;;;17.73;11.68;;;18.70;99.90;;;;;;4982976;28;20212;-85
2023/09/22 08:48:32;;;;;;;21.42;11.73;;;18.60;99.90;;;;;;4961214;28;20216;-85
2023/09/22 08:50:59;;;;;;;17.48;11.27;;;18.80;99.90;;;;;;4965235;28;20195;-83
2023/09/22 08:53:29;;;;;;;15.68;11.00;;;18.90;99.90;;;;;;4981536;28;20196;-85
2023/09/22 08:55:57;;;;;;;18.15;12.48;;;18.90;99.90;;;;;;4970292;28;20230;-85
2023/09/22 08:58:25;;;;;;;14.38;11.30;;;19.00;99.90;;;;;;4962292;28;20188;-86
2023/09/22 09:00:53;;;;;;;17.90;11.07;;;19.00;99.90;;;;;;4986235;28;20215;-88
2023/09/22 09:03:21;;;;;;;15.10;11.23;;;19.00;99.90;;;;;;4967395;28;20943;-86
2023/09/22 09:05:49;;;;;;;15.02;10.20;;;19.30;99.90;;;;;;4977107;28;20267;-87
2023/09/22 09:08:21;;;;;;;17.70;11.57;;;19.40;99.90;;;;;;4946195;28;20231;-86
2023/09/22 09:10:50;;;;;;;16.77;10.57;;;19.20;99.90;;;;;;4975448;28;20188;-87
2023/09/22 09:13:20;;;;;;;17.65;11.23;;;19.40;99.90;;;;;;4982786;28;20214;-85
2023/09/22 09:15:54;;;;;;;17.35;9.82;;;19.50;99.90;;;;;;4947627;28;20195;-85
2023/09/22 09:18:24;;;;;;;17.13;10.32;;;19.70;99.90;;;;;;4965397;28;20663;-86
2023/09/22 09:21:14;;;;;;;15.57;10.35;;;19.70;99.90;;;;;;4966166;28;20584;-85
2023/09/22 09:23:55;;;;;;;14.00;9.80;;;20.00;99.90;;;;;;4975263;28;20184;-85
2023/09/22 09:26:27;;;;;;;17.05;10.13;;;20.00;99.90;;;;;;4981823;28;20191;-85
2023/09/22 09:28:55;;;;;;;15.55;9.25;;;20.10;99.90;;;;;;4982446;28;20591;-87
2023/09/22 09:31:47;;;;;;;16.00;9.40;;;20.20;99.90;;;;;;4963614;28;20203;-85
2023/09/22 09:34:16;;;;;;;12.77;9.15;;;20.10;99.90;;;;;;4966426;28;20200;-85
2023/09/22 09:36:44;;;;;;;18.25;9.70;;;20.00;99.90;;;;;;4981811;28;20198;-87
2023/09/22 09:39:12;;;;;;;14.23;9.82;;;20.30;99.90;;;;;;4970908;28;20196;-85
2023/09/22 09:41:43;;;;;;;14.07;9.32;;;20.40;99.90;;;;;;4969772;28;20362;-86
2023/09/22 09:44:11;;;;;;;16.73;9.35;;;20.20;99.90;;;;;;4955518;28;20227;-86
2023/09/22 09:46:43;;;;;;;17.95;10.13;;;20.20;99.90;;;;;;4979478;28;20212;-86
2023/09/22 09:49:13;;;;;;;18.45;9.52;;;20.40;99.90;;;;;;4970960;28;20611;-86
2023/09/22 09:51:47;;;;;;;16.45;9.18;;;20.40;99.90;;;;;;4962651;28;20200;-86
2023/09/22 09:54:20;;;;;;;12.63;8.85;;;20.50;99.90;;;;;;4966220;28;20567;-86
2023/09/22 09:56:49;;;;;;;13.65;9.23;;;20.50;99.90;;;;;;4968563;28;20199;-85
2023/09/22 09:59:18;;;;;;;14.07;8.50;;;20.70;99.90;;;;;;4970657;28;20741;-86
2023/09/22 10:01:47;;;;;;;14.95;8.43;;;20.90;99.90;;;;;;4960806;28;20207;-85
2023/09/22 10:04:20;;;;;;;14.95;9.02;;;20.70;99.90;;;;;;4967447;28;20218;-86
2023/09/22 10:06:50;;;;;;;12.55;9.23;;;20.80;99.90;;;;;;4969139;28;20198;-86
2023/09/22 10:09:19;;;;;;;13.45;8.65;;;20.60;99.90;;;;;;4954154;28;20227;-88
2023/09/22 10:11:48;;;;;;;11.57;8.90;;;20.40;99.90;;;;;;4968992;28;20530;-87
2023/09/22 10:14:46;;;;;;;13.38;9.27;;;20.80;99.90;;;;;;4969906;28;20246;-86
2023/09/22 10:17:22;;;;;;;13.85;9.57;;;21.10;99.90;;;;;;4968235;28;20559;-86
2023/09/22 10:19:51;;;;;;;16.10;9.20;;;21.00;99.90;;;;;;4950158;28;20299;-86
2023/09/22 10:22:18;;;;;;;12.93;8.93;;;21.10;99.90;;;;;;4937299;28;20691;-87
2023/09/22 10:25:06;;;;;;;14.57;8.07;;;21.40;99.90;;;;;;4944132;29;20193;-86
2023/09/22 10:27:57;;;;;;;12.65;9.63;;;21.40;99.90;;;;;;4941686;28;20317;-86
2023/09/22 10:30:46;;;;;;;14.45;8.65;;;21.40;99.90;;;;;;4941080;29;20521;-86
2023/09/22 10:33:27;;;;;;;16.67;9.60;;;21.50;99.90;;;;;;4936751;29;20627;-86
2023/09/22 10:35:54;;;;;;;12.77;8.80;;;21.50;99.90;;;;;;4947566;29;20192;-86
2023/09/22 10:38:22;;;;;;;14.85;9.60;;;21.60;99.90;;;;;;4929042;29;20225;-85
2023/09/22 10:41:02;;;;;;;15.45;8.63;;;21.60;99.90;;;;;;4941389;28;20212;-85
2023/09/22 10:43:34;;;;;;;14.23;8.80;;;21.20;99.90;;;;;;4941545;29;20185;-85
2023/09/22 10:46:03;;;;;;;15.00;9.15;;;21.20;99.90;;;;;;4924699;29;20263;-84
2023/09/22 10:48:34;;;;;;;11.75;8.43;;;21.40;99.90;;;;;;4937290;29;20220;-85
2023/09/22 10:51:03;;;;;;;15.27;9.10;;;21.60;99.90;;;;;;4930469;28;20193;-85
2023/09/22 10:53:39;;;;;;;15.88;10.02;;;21.50;99.90;;;;;;4934188;28;20273;-85
2023/09/22 10:56:07;;;;;;;15.15;8.80;;;21.40;99.90;;;;;;4935934;28;20205;-85
2023/09/22 10:58:34;;;;;;;17.70;10.00;;;21.60;99.90;;;;;;4946864;29;20197;-85
2023/09/22 11:01:08;;;;;;;26.40;9.75;;;21.60;99.90;;;;;;4937361;29;20193;-86
2023/09/22 11:03:37;;;;;;;17.33;10.05;;;21.70;99.90;;;;;;4938231;28;20194;-86
2023/09/22 11:06:06;;;;;;;16.83;10.45;;;21.60;99.90;;;;;;4935056;28;20185;-85
2023/09/22 11:08:53;;;;;;;14.30;9.50;;;21.70;99.90;;;;;;4950937;28;20280;-86
2023/09/22 11:11:22;;;;;;;14.73;9.90;;;22.10;99.90;;;;;;4945949;28;20192;-84
2023/09/22 11:13:56;;;;;;;16.52;9.70;;;22.40;99.90;;;;;;4937537;29;20650;-87
2023/09/22 11:16:24;;;;;;;18.25;10.50;;;22.30;99.90;;;;;;4933305;28;20209;-86
2023/09/22 11:19:06;;;;;;;14.77;10.10;;;22.10;99.90;;;;;;4943240;28;20193;-86
2023/09/22 11:21:44;;;;;;;13.90;10.05;;;22.00;99.90;;;;;;4973091;28;20215;-86
2023/09/22 11:24:11;;;;;;;14.00;10.45;;;21.80;99.90;;;;;;4949259;28;20195;-85
2023/09/22 11:26:43;;;;;;;15.63;10.68;;;21.80;99.90;;;;;;4962024;28;20188;-86
2023/09/22 11:29:11;;;;;;;14.57;10.40;;;22.20;99.90;;;;;;4945048;28;20241;-87
2023/09/22 11:31:49;;;;;;;14.57;10.23;;;22.20;99.90;;;;;;4968873;28;20188;-85
2023/09/22 11:34:23;;;;;;;22.10;10.85;;;22.20;99.90;;;;;;4976630;28;20646;-85
2023/09/22 11:36:52;;;;;;;15.65;9.80;;;22.30;99.90;;;;;;4964246;28;20194;-86
2023/09/22 11:39:30;;;;;;;14.52;10.77;;;22.60;99.90;;;;;;4981425;28;20187;-85
2023/09/22 11:41:58;;;;;;;15.73;10.80;;;22.70;99.90;;;;;;4974604;28;20764;-86
2023/09/22 11:44:26;;;;;;;17.50;10.63;;;22.60;99.90;;;;;;4980350;28;20274;-85
2023/09/22 11:46:54;;;;;;;12.85;9.13;;;22.20;99.90;;;;;;4979628;28;20262;-85
2023/09/22 11:49:22;;;;;;;12.88;9.50;;;22.10;99.90;;;;;;4973239;28;20211;-86
2023/09/22 11:51:54;;;;;;;15.13;9.85;;;22.10;99.90;;;;;;4967348;28;20215;-84
2023/09/22 11:54:26;;;;;;;15.50;10.55;;;22.20;99.90;;;;;;4967308;28;20191;-85
2023/09/22 11:56:57;;;;;;;18.17;10.23;;;22.20;99.90;;;;;;4978725;28;20552;-86
2023/09/22 11:59:27;;;;;;;15.43;10.05;;;22.30;99.90;;;;;;4979102;28;20187;-86
2023/09/22 12:01:55;;;;;;;11.95;7.72;;;22.10;99.90;;;;;;4974875;28;20217;-85
2023/09/22 12:04:23;;;;;;;10.25;7.72;;;21.90;99.90;;;;;;4965177;28;20207;-85
2023/09/22 12:06:52;;;;;;;10.23;7.32;;;22.10;99.90;;;;;;4982845;28;20629;-85
2023/09/22 12:09:20;;;;;;;8.93;6.63;;;22.50;99.90;;;;;;4962897;28;20195;-85
2023/09/22 12:11:48;;;;;;;13.82;7.72;;;22.80;99.90;;;;;;4978567;28;20849;-86
2023/09/22 12:14:16;;;;;;;12.50;7.68;;;22.80;99.90;;;;;;4952819;28;20674;-86
2023/09/22 12:16:45;;;;;;;9.85;7.18;;;22.90;99.90;;;;;;4964757;28;20239;-84
2023/09/22 12:19:14;;;;;;;11.80;7.70;;;22.90;99.90;;;;;;4975627;28;20293;-86
2023/09/22 12:21:42;;;;;;;9.18;7.30;;;22.50;99.90;;;;;;4966020;28;20207;-86
2023/09/22 12:24:10;;;;;;;13.45;7.88;;;22.40;99.90;;;;;;4982218;28;20185;-86
2023/09/22 12:26:37;;;;;;;9.98;6.93;;;22.60;99.90;;;;;;4986501;28;20222;-86
2023/09/22 12:29:05;;;;;;;10.32;6.90;;;22.60;99.90;;;;;;4982131;28;20180;-85
2023/09/22 12:31:34;;;;;;;12.20;6.97;;;22.60;99.90;;;;;;4991566;28;20787;-85
2023/09/22 12:34:02;;;;;;;12.35;7.05;;;22.80;99.90;;;;;;4973654;28;20184;-85
2023/09/22 12:36:30;;;;;;;10.75;6.57;;;22.90;99.90;;;;;;4968134;28;20191;-84
2023/09/22 12:38:58;;;;;;;15.88;7.88;;;22.90;99.90;;;;;;4988008;28;20191;-84
2023/09/22 12:41:26;;;;;;;11.88;7.15;;;22.90;99.90;;;;;;4980500;28;20290;-84
2023/09/22 12:43:54;;;;;;;10.68;7.43;;;22.70;99.90;;;;;;4981542;28;20212;-84
2023/09/22 12:46:23;;;;;;;11.48;8.32;;;22.60;99.90;;;;;;4985492;28;20193;-84